11h23 EDT


 

Suivi/Infos de l'aéroport


-ou-


 

Suivi des vols en temps réelTradewind #111

Thumbnail
Tradewind 111
GPD111 · "Goodspeed" (tous les vols)
Westchester County ()
Atlantic City Intl ()
07h34 EDT
08h09 EDT
Prévu: 07h34 EDT
Prévu: 08h12 EDT
Durée: 35 minutes
samedi, 26 juillet 2014
Statut A atterri il y a plus de 3 heures (journal de vol & graphique)
Avion Pilatus PC-12 (monoturbopropulseur) (PC12 – photos)
Vitesse Plan de vol: 163 kts (graphique)
Altitude Plan de vol: 2.500 Pieds (graphique)
Distance En ligne droite 194 km    Prévue 214 km    Parcourue 291 km
Route n/a
JOURNAL DE L'ACTIVITE
Vous voulez une recherche complète sur l'historique de GPD111 depuis 1998? Achetez maintenant. Recevez-le dans l'heure.
Date Avion Provenance Destination Départ Arrivée Durée
26-07-2014 PC12Westchester County ()Atlantic City Intl () 07h34 EDT 08h09 EDT 0:35
25-07-2014 PC12/GMartha's Vineyard ()Waterbury-Oxford () 20h50 EDT 21h20 EDT 0:30
25-07-2014 PC12/GWestchester County ()Martha's Vineyard () 19h13 EDT 19h52 EDT 0:39
25-07-2014 PC12/GNantucket Memorial ()Westchester County () 15h38 EDT 16h24 EDT 0:46
25-07-2014 PC12/GWaterbury-Oxford ()Morristown Muni () 11h40 EDT 11h58 EDT (?) 0:17
24-07-2014 PC12Nantucket Memorial ()Waterbury-Oxford () 20h02 EDT 20h41 EDT 0:39
24-07-2014 PC12/GNantucket Memorial ()Westchester County () 17h10 EDT 18h00 EDT 0:50
24-07-2014 PC12/LGroton-New London ()Nantucket Memorial () 16h07 EDT 16h39 EDT 0:32
24-07-2014 PC12/GNantucket Memorial ()Westchester County () 10h59 EDT 11h45 EDT 0:46
24-07-2014 PC12/GGroton-New London ()Nantucket Memorial () 09h36 EDT 09h56 EDT (?) 0:19
24-07-2014 PC12R HTO 334 17Nantucket Memorial () 13h23 UTC 10h11 EDT 0:48
23-07-2014 PC12/GNantucket Memorial ()Westchester County () 18h04 EDT 18h51 EDT 0:47
23-07-2014 PC12/GInt'l Logan ()Nantucket Memorial () 16h02 EDT 16h29 EDT 0:27
23-07-2014 PC12/GWestchester County ()Int'l Logan () 14h04 EDT 14h57 EDT 0:53
23-07-2014 PC12/GNantucket Memorial ()Westchester County () 10h23 EDT 11h11 EDT 0:48
23-07-2014 PC12/GWestchester County ()Nantucket Memorial () 09h16 EDT 09h58 EDT 0:41
23-07-2014 PC12/GMartha's Vineyard ()Westchester County () 07h01 EDT 07h45 EDT 0:44
22-07-2014 PC12Près de Bridgeport, CTMartha's Vineyard () 22h33 UTC 19h14 EDT 0:40
22-07-2014 PC12/GMartha's Vineyard ()Westchester County () 17h27 EDT 18h05 EDT 0:38
22-07-2014 PC12/GWestchester County ()Martha's Vineyard () 16h31 EDT 17h08 EDT 0:37
22-07-2014 PC12/GKnox County Rgnl ()Westchester County () 11h05 EDT 12h13 EDT 1:08
22-07-2014 PC12Laurence G Hanscom Fld ()Knox County Rgnl () 09h21 EDT 10h03 EDT 0:42
22-07-2014 PC12/GWaterbury-Oxford ()Laurence G Hanscom Fld () 07h11 EDT 07h39 EDT 0:28
21-07-2014 PC12Nantucket Memorial ()Westchester County () 09h29 EDT 10h19 EDT 0:50
21-07-2014 PC12/GWestchester County ()Nantucket Memorial () 07h51 EDT 08h42 EDT 0:51
21-07-2014 PC12/GNantucket Memorial ()Westchester County () 06h23 EDT 07h13 EDT 0:50
21-07-2014 PC12/GWaterbury-Oxford ()Nantucket Memorial () 04h57 EDT 05h58 EDT 1:01
20-07-2014 PC12Martha's Vineyard ()Teterboro () 20h30 EDT 21h24 EDT 0:54
20-07-2014 PC12/LGroton-New London ()Martha's Vineyard () 19h15 EDT 19h44 EDT (?) 0:29
20-07-2014 PC12/LMartha's Vineyard ()Westchester County () 17h37 EDT 18h25 EDT 0:47
20-07-2014 PC12Laurence G Hanscom Fld ()Martha's Vineyard () 15h55 EDT 16h23 EDT 0:28
20-07-2014 PC12/TNewport State ()Westchester County () 12h37 EDT 13h10 EDT 0:33
19-07-2014 PC12/LSussex County ()Waterbury-Oxford () 19h31 EDT 20h14 EDT 0:42
19-07-2014 PC12/LNantucket Memorial ()Sussex County () 17h18 EDT 18h24 EDT 1:06
19-07-2014 PC12/LDoylestown ()Martha's Vineyard () 12h10 EDT 12h30 EDT (?) 0:20
19-07-2014 PC12Doylestown ()Martha's Vineyard () 11h45 EDT 13h04 EDT 1:18
19-07-2014 PC12/LWaterbury-Oxford ()Doylestown () 10h32 EDT 11h04 EDT (?) 0:31
18-07-2014 PC12Cape Cod Coast Guard Air Station ()Waterbury-Oxford () 20h31 EDT 21h00 EDT (?) 0:29
18-07-2014 UnknownR BDR 115 12Martha's Vineyard () 23h20 UTC 19h48 EDT 0:28
18-07-2014 PC12Cape Cod Coast Guard Air Station ()Westchester County () 16h47 EDT 17h23 EDT 0:36
18-07-2014 PC12Igor I Sikorsky Memorial ()Martha's Vineyard () 15h21 EDT 15h51 EDT 0:30
18-07-2014 PC12Cape Cod Coast Guard Air Station ()Westchester County () 13h13 EDT 14h18 EDT 1:05
18-07-2014 UnknownPrès de Bridgeport, CTMartha's Vineyard () 15h10 UTC 11h54 EDT 0:44
17-07-2014 PC12/Lrégional de Manchester ()Waterbury-Oxford () 17h45 EDT 18h24 EDT 0:39
17-07-2014 PC12/Lrégional de Manchester ()Westchester County () 17h45 EDT Dérouté
16-07-2014 PC12/GWestchester County ()régional de Manchester () 12h32 EDT 13h11 EDT 0:38
15-07-2014 PC12/GNantucket Memorial ()Westchester County () 18h07 EDT 18h57 EDT 0:50
15-07-2014 PC12/GInt'l Logan ()Nantucket Memorial () 15h54 EDT 16h28 EDT 0:34
15-07-2014 PC12/GNantucket Memorial ()Int'l Logan () 12h35 EDT 13h05 EDT 0:30
15-07-2014 PC12/GWestchester County ()Nantucket Memorial () 09h02 EDT 09h59 EDT 0:56
14-07-2014 PC12/LNantucket Memorial ()Westchester County () 20h11 EDT 21h16 EDT 1:05
14-07-2014 PC12/LWestchester County ()Nantucket Memorial () 12h06 EDT 13h11 EDT 1:05
14-07-2014 PC12/LNantucket Memorial ()Westchester County () 09h17 EDT 10h12 EDT 0:55
14-07-2014 PC12/LWestchester County ()Nantucket Memorial () 07h24 EDT 08h27 EDT 1:03
14-07-2014 PC12/LNantucket Memorial ()Westchester County () 06h01 EDT 06h49 EDT 0:48
14-07-2014 PC12/LWaterbury-Oxford ()Nantucket Memorial () 04h33 EDT 04h59 EDT 0:26
13-07-2014 PC12/LMontauk ()Nantucket Memorial () 12h12 EDT 12h42 EDT (?) 0:30
13-07-2014 PC12/LAltoona-Blair County ()Montauk () 10h45 EDT 12h01 EDT 1:16
13-07-2014 PC12/LWaterbury-Oxford ()Altoona-Blair County () 07h47 EDT 08h55 EDT 1:08
12-07-2014 PC12New Bedford Rgnl ()East Hampton () 18h10 EDT 18h31 EDT 0:21
12-07-2014 PC12Nantucket Memorial ()East Hampton () 13h23 EDT 13h51 EDT 0:28
12-07-2014 UnknownR BDR 145 5Nantucket Memorial () 13h18 UTC 09h59 EDT 0:41
Les membres inscrits (l'inscription est gratuite et facile!) voient 4 months d'historique. S'inscrire